Aviation Digital Data Service (ADDS)

Output produced by METARs form (1752 UTC 19 April 2014)
found at http://www.aviationweather.gov/adds/metars/
 
KLNS 191653Z 01006KT 10SM CLR 16/M01 A3026 RMK AO2 SLP249 T01611011
KLNS 191725Z 1918/2018 01006KT P6SM BKN250 
     FM200000 VRB04KT P6SM SKC 
     FM201100 06004KT P6SM SKC